sensor_id;sensor_type;location;lat;lon;timestamp;P1;durP1;ratioP1;P2;durP2;ratioP2
20828;SDS011;10575;50.124;8.582;2023-03-19T00:01:02;29.88;;;15.77;;
20828;SDS011;10575;50.124;8.582;2023-03-19T00:03:29;25.83;;;14.40;;
20828;SDS011;10575;50.124;8.582;2023-03-19T00:05:55;23.42;;;13.80;;
20828;SDS011;10575;50.124;8.582;2023-03-19T00:08:20;26.33;;;14.07;;
20828;SDS011;10575;50.124;8.582;2023-03-19T00:10:46;27.75;;;14.02;;
20828;SDS011;10575;50.124;8.582;2023-03-19T00:13:12;22.30;;;13.57;;
20828;SDS011;10575;50.124;8.582;2023-03-19T00:15:37;25.17;;;14.73;;
20828;SDS011;10575;50.124;8.582;2023-03-19T00:18:03;30.35;;;14.52;;
20828;SDS011;10575;50.124;8.582;2023-03-19T00:20:30;25.52;;;13.10;;
20828;SDS011;10575;50.124;8.582;2023-03-19T00:22:56;21.00;;;13.45;;
20828;SDS011;10575;50.124;8.582;2023-03-19T00:25:21;19.75;;;12.63;;
20828;SDS011;10575;50.124;8.582;2023-03-19T00:27:47;25.73;;;12.88;;
20828;SDS011;10575;50.124;8.582;2023-03-19T00:30:13;24.23;;;14.15;;
20828;SDS011;10575;50.124;8.582;2023-03-19T00:32:39;23.85;;;13.63;;
20828;SDS011;10575;50.124;8.582;2023-03-19T00:35:05;24.27;;;14.13;;
20828;SDS011;10575;50.124;8.582;2023-03-19T00:37:31;23.58;;;13.82;;
20828;SDS011;10575;50.124;8.582;2023-03-19T00:39:57;26.95;;;15.20;;
20828;SDS011;10575;50.124;8.582;2023-03-19T00:42:23;27.13;;;15.45;;
20828;SDS011;10575;50.124;8.582;2023-03-19T00:44:49;28.45;;;15.35;;
20828;SDS011;10575;50.124;8.582;2023-03-19T00:47:15;28.10;;;15.82;;
20828;SDS011;10575;50.124;8.582;2023-03-19T00:49:40;26.90;;;15.32;;
20828;SDS011;10575;50.124;8.582;2023-03-19T00:52:06;29.17;;;17.55;;
20828;SDS011;10575;50.124;8.582;2023-03-19T00:54:32;28.52;;;17.10;;
20828;SDS011;10575;50.124;8.582;2023-03-19T00:56:58;33.90;;;16.77;;
20828;SDS011;10575;50.124;8.582;2023-03-19T00:59:24;26.02;;;16.00;;
20828;SDS011;10575;50.124;8.582;2023-03-19T01:01:49;27.83;;;15.38;;
20828;SDS011;10575;50.124;8.582;2023-03-19T01:04:15;28.60;;;14.00;;
20828;SDS011;10575;50.124;8.582;2023-03-19T01:06:42;27.75;;;13.68;;
20828;SDS011;10575;50.124;8.582;2023-03-19T01:09:08;25.10;;;14.10;;
20828;SDS011;10575;50.124;8.582;2023-03-19T01:11:34;24.70;;;13.68;;
20828;SDS011;10575;50.124;8.582;2023-03-19T01:13:59;26.88;;;15.15;;
20828;SDS011;10575;50.124;8.582;2023-03-19T01:16:26;26.77;;;14.95;;
20828;SDS011;10575;50.124;8.582;2023-03-19T01:18:52;24.35;;;13.80;;
20828;SDS011;10575;50.124;8.582;2023-03-19T01:21:18;22.35;;;13.30;;
20828;SDS011;10575;50.124;8.582;2023-03-19T01:23:44;24.98;;;14.13;;
20828;SDS011;10575;50.124;8.582;2023-03-19T01:26:10;19.90;;;13.23;;
20828;SDS011;10575;50.124;8.582;2023-03-19T01:28:37;23.05;;;13.07;;
20828;SDS011;10575;50.124;8.582;2023-03-19T01:31:05;22.60;;;13.77;;
20828;SDS011;10575;50.124;8.582;2023-03-19T01:33:31;22.45;;;13.18;;
20828;SDS011;10575;50.124;8.582;2023-03-19T01:35:57;28.85;;;13.73;;
20828;SDS011;10575;50.124;8.582;2023-03-19T01:38:26;19.65;;;12.50;;
20828;SDS011;10575;50.124;8.582;2023-03-19T01:40:52;29.58;;;14.48;;
20828;SDS011;10575;50.124;8.582;2023-03-19T01:43:19;22.52;;;14.88;;
20828;SDS011;10575;50.124;8.582;2023-03-19T01:45:46;19.70;;;12.93;;
20828;SDS011;10575;50.124;8.582;2023-03-19T01:48:21;24.30;;;13.23;;
20828;SDS011;10575;50.124;8.582;2023-03-19T01:50:52;23.83;;;13.18;;
20828;SDS011;10575;50.124;8.582;2023-03-19T01:53:21;24.17;;;12.73;;
20828;SDS011;10575;50.124;8.582;2023-03-19T01:55:49;19.67;;;12.90;;
20828;SDS011;10575;50.124;8.582;2023-03-19T01:58:18;22.08;;;13.18;;
20828;SDS011;10575;50.124;8.582;2023-03-19T02:00:45;21.67;;;12.00;;
20828;SDS011;10575;50.124;8.582;2023-03-19T02:03:11;22.98;;;12.07;;
20828;SDS011;10575;50.124;8.582;2023-03-19T02:05:37;21.77;;;12.43;;
20828;SDS011;10575;50.124;8.582;2023-03-19T02:08:06;23.23;;;11.48;;
20828;SDS011;10575;50.124;8.582;2023-03-19T02:10:35;19.33;;;11.88;;
20828;SDS011;10575;50.124;8.582;2023-03-19T02:13:01;23.10;;;13.50;;
20828;SDS011;10575;50.124;8.582;2023-03-19T02:15:27;25.25;;;12.75;;
20828;SDS011;10575;50.124;8.582;2023-03-19T02:17:52;19.83;;;12.02;;
20828;SDS011;10575;50.124;8.582;2023-03-19T02:20:31;20.55;;;11.38;;
20828;SDS011;10575;50.124;8.582;2023-03-19T02:23:24;17.08;;;10.40;;
20828;SDS011;10575;50.124;8.582;2023-03-19T02:28:22;19.27;;;11.48;;
20828;SDS011;10575;50.124;8.582;2023-03-19T02:30:48;18.00;;;10.60;;
20828;SDS011;10575;50.124;8.582;2023-03-19T02:33:15;19.60;;;10.98;;
20828;SDS011;10575;50.124;8.582;2023-03-19T02:35:43;18.20;;;9.82;;
20828;SDS011;10575;50.124;8.582;2023-03-19T02:38:11;17.50;;;10.57;;
20828;SDS011;10575;50.124;8.582;2023-03-19T02:40:40;22.30;;;11.43;;
20828;SDS011;10575;50.124;8.582;2023-03-19T02:43:29;20.33;;;10.88;;
20828;SDS011;10575;50.124;8.582;2023-03-19T02:45:58;18.13;;;10.45;;
20828;SDS011;10575;50.124;8.582;2023-03-19T02:48:24;19.63;;;10.73;;
20828;SDS011;10575;50.124;8.582;2023-03-19T02:50:50;16.25;;;9.93;;
20828;SDS011;10575;50.124;8.582;2023-03-19T02:53:16;17.17;;;10.48;;
20828;SDS011;10575;50.124;8.582;2023-03-19T02:55:42;14.68;;;9.25;;
20828;SDS011;10575;50.124;8.582;2023-03-19T02:58:08;21.55;;;10.77;;
20828;SDS011;10575;50.124;8.582;2023-03-19T03:00:33;17.20;;;10.65;;
20828;SDS011;10575;50.124;8.582;2023-03-19T03:02:59;16.27;;;10.10;;
20828;SDS011;10575;50.124;8.582;2023-03-19T03:05:25;17.92;;;10.10;;
20828;SDS011;10575;50.124;8.582;2023-03-19T03:07:51;18.48;;;10.90;;
20828;SDS011;10575;50.124;8.582;2023-03-19T03:10:17;22.40;;;11.70;;
20828;SDS011;10575;50.124;8.582;2023-03-19T03:12:43;17.15;;;10.65;;
20828;SDS011;10575;50.124;8.582;2023-03-19T03:15:10;20.80;;;11.57;;
20828;SDS011;10575;50.124;8.582;2023-03-19T03:17:37;21.17;;;11.77;;
20828;SDS011;10575;50.124;8.582;2023-03-19T03:20:04;17.60;;;11.30;;
20828;SDS011;10575;50.124;8.582;2023-03-19T03:22:31;20.08;;;10.95;;
20828;SDS011;10575;50.124;8.582;2023-03-19T03:24:57;19.83;;;10.95;;
20828;SDS011;10575;50.124;8.582;2023-03-19T03:27:23;21.42;;;11.75;;
20828;SDS011;10575;50.124;8.582;2023-03-19T03:29:48;21.85;;;12.25;;
20828;SDS011;10575;50.124;8.582;2023-03-19T03:32:14;19.13;;;11.27;;
20828;SDS011;10575;50.124;8.582;2023-03-19T03:34:41;20.27;;;12.90;;
20828;SDS011;10575;50.124;8.582;2023-03-19T03:37:06;21.15;;;12.20;;
20828;SDS011;10575;50.124;8.582;2023-03-19T03:39:33;22.02;;;11.73;;
20828;SDS011;10575;50.124;8.582;2023-03-19T03:41:58;17.75;;;10.60;;
20828;SDS011;10575;50.124;8.582;2023-03-19T03:44:24;18.88;;;10.98;;
20828;SDS011;10575;50.124;8.582;2023-03-19T03:46:50;18.27;;;10.73;;
20828;SDS011;10575;50.124;8.582;2023-03-19T03:49:15;18.75;;;9.82;;
20828;SDS011;10575;50.124;8.582;2023-03-19T03:51:41;18.38;;;11.05;;
20828;SDS011;10575;50.124;8.582;2023-03-19T03:54:06;16.60;;;10.13;;
20828;SDS011;10575;50.124;8.582;2023-03-19T03:56:32;17.67;;;10.27;;
20828;SDS011;10575;50.124;8.582;2023-03-19T03:58:58;19.67;;;11.68;;
20828;SDS011;10575;50.124;8.582;2023-03-19T04:01:23;17.20;;;10.38;;
20828;SDS011;10575;50.124;8.582;2023-03-19T04:03:49;16.25;;;10.23;;
20828;SDS011;10575;50.124;8.582;2023-03-19T04:06:15;16.05;;;10.68;;
20828;SDS011;10575;50.124;8.582;2023-03-19T04:08:43;21.23;;;10.20;;
20828;SDS011;10575;50.124;8.582;2023-03-19T04:11:09;19.45;;;10.18;;
20828;SDS011;10575;50.124;8.582;2023-03-19T04:13:35;16.70;;;10.32;;
20828;SDS011;10575;50.124;8.582;2023-03-19T04:16:07;18.10;;;9.93;;
20828;SDS011;10575;50.124;8.582;2023-03-19T04:18:35;18.58;;;10.55;;
20828;SDS011;10575;50.124;8.582;2023-03-19T04:21:01;17.73;;;9.35;;
20828;SDS011;10575;50.124;8.582;2023-03-19T04:23:28;18.83;;;10.40;;
20828;SDS011;10575;50.124;8.582;2023-03-19T04:25:57;16.88;;;10.57;;
20828;SDS011;10575;50.124;8.582;2023-03-19T04:28:24;17.90;;;10.15;;
20828;SDS011;10575;50.124;8.582;2023-03-19T04:30:50;18.13;;;10.30;;
20828;SDS011;10575;50.124;8.582;2023-03-19T04:33:15;15.00;;;9.27;;
20828;SDS011;10575;50.124;8.582;2023-03-19T04:35:41;16.38;;;10.20;;
20828;SDS011;10575;50.124;8.582;2023-03-19T04:38:07;15.57;;;9.40;;
20828;SDS011;10575;50.124;8.582;2023-03-19T04:40:33;19.23;;;9.75;;
20828;SDS011;10575;50.124;8.582;2023-03-19T04:42:59;14.75;;;9.65;;
20828;SDS011;10575;50.124;8.582;2023-03-19T04:45:24;15.45;;;9.23;;
20828;SDS011;10575;50.124;8.582;2023-03-19T04:47:50;17.15;;;9.32;;
20828;SDS011;10575;50.124;8.582;2023-03-19T04:50:15;14.57;;;9.15;;
20828;SDS011;10575;50.124;8.582;2023-03-19T04:52:42;18.33;;;9.98;;
20828;SDS011;10575;50.124;8.582;2023-03-19T04:55:07;18.55;;;9.60;;
20828;SDS011;10575;50.124;8.582;2023-03-19T04:57:33;14.63;;;8.68;;
20828;SDS011;10575;50.124;8.582;2023-03-19T04:59:59;16.95;;;8.93;;
20828;SDS011;10575;50.124;8.582;2023-03-19T05:02:25;17.25;;;9.43;;
20828;SDS011;10575;50.124;8.582;2023-03-19T05:04:51;16.40;;;9.15;;
20828;SDS011;10575;50.124;8.582;2023-03-19T05:07:16;15.73;;;9.25;;
20828;SDS011;10575;50.124;8.582;2023-03-19T05:09:42;17.75;;;9.57;;
20828;SDS011;10575;50.124;8.582;2023-03-19T05:12:10;16.85;;;8.75;;
20828;SDS011;10575;50.124;8.582;2023-03-19T05:14:36;13.80;;;9.07;;
20828;SDS011;10575;50.124;8.582;2023-03-19T05:17:02;15.93;;;9.07;;
20828;SDS011;10575;50.124;8.582;2023-03-19T05:19:28;13.02;;;7.85;;
20828;SDS011;10575;50.124;8.582;2023-03-19T05:21:53;21.60;;;9.30;;
20828;SDS011;10575;50.124;8.582;2023-03-19T05:24:21;16.35;;;9.80;;
20828;SDS011;10575;50.124;8.582;2023-03-19T05:26:47;17.40;;;9.20;;
20828;SDS011;10575;50.124;8.582;2023-03-19T05:29:12;15.90;;;8.82;;
20828;SDS011;10575;50.124;8.582;2023-03-19T05:31:38;18.27;;;9.52;;
20828;SDS011;10575;50.124;8.582;2023-03-19T05:34:04;14.57;;;8.70;;
20828;SDS011;10575;50.124;8.582;2023-03-19T05:36:30;16.92;;;8.60;;
20828;SDS011;10575;50.124;8.582;2023-03-19T05:38:55;13.75;;;8.30;;
20828;SDS011;10575;50.124;8.582;2023-03-19T05:41:21;15.68;;;9.30;;
20828;SDS011;10575;50.124;8.582;2023-03-19T05:43:46;15.68;;;8.00;;
20828;SDS011;10575;50.124;8.582;2023-03-19T05:46:12;13.73;;;8.85;;
20828;SDS011;10575;50.124;8.582;2023-03-19T05:48:37;16.48;;;9.15;;
20828;SDS011;10575;50.124;8.582;2023-03-19T05:51:03;13.98;;;9.15;;
20828;SDS011;10575;50.124;8.582;2023-03-19T05:53:29;21.17;;;9.15;;
20828;SDS011;10575;50.124;8.582;2023-03-19T05:55:54;20.65;;;9.27;;
20828;SDS011;10575;50.124;8.582;2023-03-19T05:58:20;16.10;;;9.48;;
20828;SDS011;10575;50.124;8.582;2023-03-19T06:00:45;15.73;;;8.98;;
20828;SDS011;10575;50.124;8.582;2023-03-19T06:03:12;18.52;;;9.55;;
20828;SDS011;10575;50.124;8.582;2023-03-19T06:05:38;17.23;;;9.05;;
20828;SDS011;10575;50.124;8.582;2023-03-19T06:08:04;14.77;;;9.05;;
20828;SDS011;10575;50.124;8.582;2023-03-19T06:10:30;16.02;;;9.70;;
20828;SDS011;10575;50.124;8.582;2023-03-19T06:12:58;18.50;;;9.20;;
20828;SDS011;10575;50.124;8.582;2023-03-19T06:15:23;18.02;;;9.93;;
20828;SDS011;10575;50.124;8.582;2023-03-19T06:17:49;19.75;;;10.00;;
20828;SDS011;10575;50.124;8.582;2023-03-19T06:20:14;21.50;;;9.98;;
20828;SDS011;10575;50.124;8.582;2023-03-19T06:22:40;18.60;;;10.20;;
20828;SDS011;10575;50.124;8.582;2023-03-19T06:25:05;20.27;;;9.80;;
20828;SDS011;10575;50.124;8.582;2023-03-19T06:27:31;15.77;;;9.20;;
20828;SDS011;10575;50.124;8.582;2023-03-19T06:29:57;15.65;;;9.68;;
20828;SDS011;10575;50.124;8.582;2023-03-19T06:32:22;16.95;;;9.15;;
20828;SDS011;10575;50.124;8.582;2023-03-19T06:34:48;13.25;;;8.95;;
20828;SDS011;10575;50.124;8.582;2023-03-19T06:37:13;22.00;;;9.88;;
20828;SDS011;10575;50.124;8.582;2023-03-19T06:39:39;22.58;;;11.52;;
20828;SDS011;10575;50.124;8.582;2023-03-19T06:42:05;26.42;;;15.35;;
20828;SDS011;10575;50.124;8.582;2023-03-19T06:44:31;37.38;;;20.45;;
20828;SDS011;10575;50.124;8.582;2023-03-19T06:46:56;35.83;;;19.90;;
20828;SDS011;10575;50.124;8.582;2023-03-19T06:49:22;35.35;;;19.23;;
20828;SDS011;10575;50.124;8.582;2023-03-19T06:51:47;31.38;;;16.55;;
20828;SDS011;10575;50.124;8.582;2023-03-19T06:54:13;29.65;;;15.27;;
20828;SDS011;10575;50.124;8.582;2023-03-19T06:56:38;28.55;;;14.43;;
20828;SDS011;10575;50.124;8.582;2023-03-19T06:59:04;23.63;;;13.55;;
20828;SDS011;10575;50.124;8.582;2023-03-19T07:01:30;28.60;;;14.40;;
20828;SDS011;10575;50.124;8.582;2023-03-19T07:03:55;24.15;;;13.45;;
20828;SDS011;10575;50.124;8.582;2023-03-19T07:06:21;16.90;;;11.05;;
20828;SDS011;10575;50.124;8.582;2023-03-19T07:08:47;16.90;;;10.02;;
20828;SDS011;10575;50.124;8.582;2023-03-19T07:11:13;17.25;;;10.32;;
20828;SDS011;10575;50.124;8.582;2023-03-19T07:13:40;17.10;;;10.88;;
20828;SDS011;10575;50.124;8.582;2023-03-19T07:16:06;16.52;;;10.85;;
20828;SDS011;10575;50.124;8.582;2023-03-19T07:18:32;14.27;;;10.30;;
20828;SDS011;10575;50.124;8.582;2023-03-19T07:20:57;15.45;;;10.15;;
20828;SDS011;10575;50.124;8.582;2023-03-19T07:23:23;16.95;;;10.40;;
20828;SDS011;10575;50.124;8.582;2023-03-19T07:25:48;13.32;;;9.52;;
20828;SDS011;10575;50.124;8.582;2023-03-19T07:28:14;15.98;;;10.48;;
20828;SDS011;10575;50.124;8.582;2023-03-19T07:30:40;14.38;;;9.38;;
20828;SDS011;10575;50.124;8.582;2023-03-19T07:33:06;15.50;;;10.85;;
20828;SDS011;10575;50.124;8.582;2023-03-19T07:35:32;19.60;;;11.45;;
20828;SDS011;10575;50.124;8.582;2023-03-19T07:37:58;18.05;;;11.25;;
20828;SDS011;10575;50.124;8.582;2023-03-19T07:40:24;19.77;;;10.93;;
20828;SDS011;10575;50.124;8.582;2023-03-19T07:42:50;18.65;;;11.32;;
20828;SDS011;10575;50.124;8.582;2023-03-19T07:45:16;21.40;;;10.98;;
20828;SDS011;10575;50.124;8.582;2023-03-19T07:47:42;19.52;;;9.80;;
20828;SDS011;10575;50.124;8.582;2023-03-19T07:50:07;17.45;;;9.13;;
20828;SDS011;10575;50.124;8.582;2023-03-19T07:52:34;13.60;;;9.05;;
20828;SDS011;10575;50.124;8.582;2023-03-19T07:55:00;16.27;;;10.23;;
20828;SDS011;10575;50.124;8.582;2023-03-19T07:57:26;15.63;;;9.95;;
20828;SDS011;10575;50.124;8.582;2023-03-19T07:59:51;17.85;;;9.45;;
20828;SDS011;10575;50.124;8.582;2023-03-19T08:02:17;17.15;;;9.48;;
20828;SDS011;10575;50.124;8.582;2023-03-19T08:04:43;11.43;;;8.60;;
20828;SDS011;10575;50.124;8.582;2023-03-19T08:07:09;15.52;;;9.85;;
20828;SDS011;10575;50.124;8.582;2023-03-19T08:09:38;16.23;;;9.43;;
20828;SDS011;10575;50.124;8.582;2023-03-19T08:12:05;13.25;;;9.23;;
20828;SDS011;10575;50.124;8.582;2023-03-19T08:14:31;14.75;;;9.32;;
20828;SDS011;10575;50.124;8.582;2023-03-19T08:16:57;14.32;;;9.23;;
20828;SDS011;10575;50.124;8.582;2023-03-19T08:19:23;15.43;;;9.63;;
20828;SDS011;10575;50.124;8.582;2023-03-19T08:21:48;15.02;;;9.68;;
20828;SDS011;10575;50.124;8.582;2023-03-19T08:24:14;13.38;;;8.82;;
20828;SDS011;10575;50.124;8.582;2023-03-19T08:26:39;13.55;;;8.57;;
20828;SDS011;10575;50.124;8.582;2023-03-19T08:29:05;16.10;;;9.15;;
20828;SDS011;10575;50.124;8.582;2023-03-19T08:31:31;15.18;;;8.52;;
20828;SDS011;10575;50.124;8.582;2023-03-19T08:33:57;15.55;;;9.15;;
20828;SDS011;10575;50.124;8.582;2023-03-19T08:36:27;12.88;;;8.25;;
20828;SDS011;10575;50.124;8.582;2023-03-19T08:38:52;14.65;;;8.30;;
20828;SDS011;10575;50.124;8.582;2023-03-19T08:41:19;11.23;;;7.85;;
20828;SDS011;10575;50.124;8.582;2023-03-19T08:43:45;13.20;;;7.90;;
20828;SDS011;10575;50.124;8.582;2023-03-19T08:46:11;13.55;;;6.75;;
20828;SDS011;10575;50.124;8.582;2023-03-19T08:48:37;12.60;;;7.07;;
20828;SDS011;10575;50.124;8.582;2023-03-19T08:51:02;8.55;;;6.30;;
20828;SDS011;10575;50.124;8.582;2023-03-19T08:53:28;11.38;;;6.75;;
20828;SDS011;10575;50.124;8.582;2023-03-19T08:55:56;11.63;;;6.57;;
20828;SDS011;10575;50.124;8.582;2023-03-19T08:58:26;7.32;;;5.45;;
20828;SDS011;10575;50.124;8.582;2023-03-19T09:00:52;6.70;;;5.40;;
20828;SDS011;10575;50.124;8.582;2023-03-19T09:03:25;7.65;;;5.40;;
20828;SDS011;10575;50.124;8.582;2023-03-19T09:05:51;8.65;;;5.53;;
20828;SDS011;10575;50.124;8.582;2023-03-19T09:08:16;7.85;;;5.50;;
20828;SDS011;10575;50.124;8.582;2023-03-19T09:10:42;7.00;;;5.18;;
20828;SDS011;10575;50.124;8.582;2023-03-19T09:13:08;6.57;;;5.13;;
20828;SDS011;10575;50.124;8.582;2023-03-19T09:15:33;6.18;;;5.03;;
20828;SDS011;10575;50.124;8.582;2023-03-19T09:17:59;6.70;;;4.47;;
20828;SDS011;10575;50.124;8.582;2023-03-19T09:20:24;5.20;;;4.32;;
20828;SDS011;10575;50.124;8.582;2023-03-19T09:22:50;6.70;;;4.13;;
20828;SDS011;10575;50.124;8.582;2023-03-19T09:25:16;8.25;;;4.60;;
20828;SDS011;10575;50.124;8.582;2023-03-19T09:27:41;4.35;;;3.95;;
20828;SDS011;10575;50.124;8.582;2023-03-19T09:30:07;5.05;;;3.70;;
20828;SDS011;10575;50.124;8.582;2023-03-19T09:32:33;8.98;;;4.55;;
20828;SDS011;10575;50.124;8.582;2023-03-19T09:34:59;4.45;;;3.47;;
20828;SDS011;10575;50.124;8.582;2023-03-19T09:37:25;5.95;;;4.20;;
20828;SDS011;10575;50.124;8.582;2023-03-19T09:39:51;6.93;;;4.47;;
20828;SDS011;10575;50.124;8.582;2023-03-19T09:45:22;5.80;;;3.90;;
20828;SDS011;10575;50.124;8.582;2023-03-19T09:47:51;7.65;;;4.13;;
20828;SDS011;10575;50.124;8.582;2023-03-19T09:50:22;8.43;;;5.10;;
20828;SDS011;10575;50.124;8.582;2023-03-19T09:52:53;7.13;;;4.00;;
20828;SDS011;10575;50.124;8.582;2023-03-19T09:58:17;8.10;;;4.68;;
20828;SDS011;10575;50.124;8.582;2023-03-19T10:00:52;6.63;;;4.88;;
20828;SDS011;10575;50.124;8.582;2023-03-19T10:03:31;10.07;;;4.35;;
20828;SDS011;10575;50.124;8.582;2023-03-19T10:17:39;6.97;;;4.28;;
20828;SDS011;10575;50.124;8.582;2023-03-19T10:20:23;7.32;;;4.70;;
20828;SDS011;10575;50.124;8.582;2023-03-19T10:23:15;7.32;;;4.70;;
20828;SDS011;10575;50.124;8.582;2023-03-19T10:26:04;7.55;;;5.22;;
20828;SDS011;10575;50.124;8.582;2023-03-19T10:28:33;9.02;;;5.90;;
20828;SDS011;10575;50.124;8.582;2023-03-19T10:36:41;6.10;;;4.72;;
20828;SDS011;10575;50.124;8.582;2023-03-19T10:39:06;7.43;;;4.47;;
20828;SDS011;10575;50.124;8.582;2023-03-19T10:41:54;6.70;;;4.63;;
20828;SDS011;10575;50.124;8.582;2023-03-19T10:44:41;7.03;;;4.63;;
20828;SDS011;10575;50.124;8.582;2023-03-19T10:47:37;5.88;;;4.63;;
20828;SDS011;10575;50.124;8.582;2023-03-19T10:50:04;6.82;;;3.55;;
20828;SDS011;10575;50.124;8.582;2023-03-19T10:52:32;7.40;;;3.78;;
20828;SDS011;10575;50.124;8.582;2023-03-19T10:55:13;4.85;;;3.90;;
20828;SDS011;10575;50.124;8.582;2023-03-19T10:57:43;6.13;;;3.45;;
20828;SDS011;10575;50.124;8.582;2023-03-19T11:00:21;7.45;;;3.88;;
20828;SDS011;10575;50.124;8.582;2023-03-19T11:02:49;6.10;;;4.10;;
20828;SDS011;10575;50.124;8.582;2023-03-19T11:07:49;7.50;;;4.70;;
20828;SDS011;10575;50.124;8.582;2023-03-19T11:10:23;5.60;;;4.32;;
20828;SDS011;10575;50.124;8.582;2023-03-19T11:12:54;7.25;;;4.85;;
20828;SDS011;10575;50.124;8.582;2023-03-19T11:15:22;7.78;;;4.60;;
20828;SDS011;10575;50.124;8.582;2023-03-19T11:17:56;7.18;;;4.60;;
20828;SDS011;10575;50.124;8.582;2023-03-19T11:20:29;7.25;;;4.55;;
20828;SDS011;10575;50.124;8.582;2023-03-19T11:22:56;8.25;;;5.10;;
20828;SDS011;10575;50.124;8.582;2023-03-19T11:25:34;6.95;;;4.82;;
20828;SDS011;10575;50.124;8.582;2023-03-19T11:28:05;7.97;;;4.80;;
20828;SDS011;10575;50.124;8.582;2023-03-19T11:35:50;8.45;;;5.20;;
20828;SDS011;10575;50.124;8.582;2023-03-19T11:41:30;7.55;;;4.80;;
20828;SDS011;10575;50.124;8.582;2023-03-19T11:44:00;7.68;;;4.78;;
20828;SDS011;10575;50.124;8.582;2023-03-19T11:47:01;5.57;;;4.55;;
20828;SDS011;10575;50.124;8.582;2023-03-19T11:52:49;7.35;;;4.40;;
20828;SDS011;10575;50.124;8.582;2023-03-19T11:55:33;7.60;;;3.92;;
20828;SDS011;10575;50.124;8.582;2023-03-19T11:58:16;7.25;;;4.45;;
20828;SDS011;10575;50.124;8.582;2023-03-19T12:01:17;6.35;;;4.10;;
20828;SDS011;10575;50.124;8.582;2023-03-19T12:06:30;9.25;;;4.90;;
20828;SDS011;10575;50.124;8.582;2023-03-19T12:09:17;5.57;;;3.78;;
20828;SDS011;10575;50.124;8.582;2023-03-19T12:11:51;10.07;;;4.50;;
20828;SDS011;10575;50.124;8.582;2023-03-19T12:14:42;8.95;;;5.03;;
20828;SDS011;10575;50.124;8.582;2023-03-19T12:28:24;9.80;;;6.15;;
20828;SDS011;10575;50.124;8.582;2023-03-19T12:36:32;6.10;;;3.97;;
20828;SDS011;10575;50.124;8.582;2023-03-19T12:39:21;7.88;;;4.60;;
20828;SDS011;10575;50.124;8.582;2023-03-19T12:41:57;6.97;;;4.55;;
20828;SDS011;10575;50.124;8.582;2023-03-19T12:44:28;8.55;;;5.18;;
20828;SDS011;10575;50.124;8.582;2023-03-19T12:47:13;7.55;;;4.45;;
20828;SDS011;10575;50.124;8.582;2023-03-19T12:49:50;6.85;;;5.00;;
20828;SDS011;10575;50.124;8.582;2023-03-19T12:52:25;9.30;;;5.35;;
20828;SDS011;10575;50.124;8.582;2023-03-19T12:57:42;8.82;;;4.70;;
20828;SDS011;10575;50.124;8.582;2023-03-19T13:00:15;7.25;;;4.00;;
20828;SDS011;10575;50.124;8.582;2023-03-19T13:06:18;10.23;;;3.53;;
20828;SDS011;10575;50.124;8.582;2023-03-19T13:14:53;8.50;;;3.97;;
20828;SDS011;10575;50.124;8.582;2023-03-19T13:17:24;5.55;;;4.00;;
20828;SDS011;10575;50.124;8.582;2023-03-19T13:20:16;6.10;;;3.63;;
20828;SDS011;10575;50.124;8.582;2023-03-19T13:22:50;9.10;;;3.65;;
20828;SDS011;10575;50.124;8.582;2023-03-19T13:25:22;5.20;;;3.45;;
20828;SDS011;10575;50.124;8.582;2023-03-19T13:27:53;3.92;;;2.83;;
20828;SDS011;10575;50.124;8.582;2023-03-19T13:30:19;6.68;;;3.65;;
20828;SDS011;10575;50.124;8.582;2023-03-19T13:32:47;6.05;;;4.28;;
20828;SDS011;10575;50.124;8.582;2023-03-19T13:38:17;8.02;;;3.50;;
20828;SDS011;10575;50.124;8.582;2023-03-19T13:40:47;4.75;;;3.05;;
20828;SDS011;10575;50.124;8.582;2023-03-19T13:45:52;4.35;;;2.03;;
20828;SDS011;10575;50.124;8.582;2023-03-19T13:57:01;3.45;;;2.45;;
20828;SDS011;10575;50.124;8.582;2023-03-19T13:59:39;11.18;;;6.75;;
20828;SDS011;10575;50.124;8.582;2023-03-19T14:07:25;6.90;;;3.30;;
20828;SDS011;10575;50.124;8.582;2023-03-19T14:12:24;11.23;;;7.57;;
20828;SDS011;10575;50.124;8.582;2023-03-19T14:14:59;5.10;;;3.42;;
20828;SDS011;10575;50.124;8.582;2023-03-19T14:17:38;3.38;;;2.20;;
20828;SDS011;10575;50.124;8.582;2023-03-19T14:22:38;8.32;;;5.53;;
20828;SDS011;10575;50.124;8.582;2023-03-19T14:25:24;3.22;;;2.30;;
20828;SDS011;10575;50.124;8.582;2023-03-19T14:27:56;3.25;;;2.40;;
20828;SDS011;10575;50.124;8.582;2023-03-19T14:30:36;3.90;;;2.05;;
20828;SDS011;10575;50.124;8.582;2023-03-19T14:33:04;2.35;;;1.77;;
20828;SDS011;10575;50.124;8.582;2023-03-19T14:35:38;3.30;;;1.63;;
20828;SDS011;10575;50.124;8.582;2023-03-19T14:38:13;3.47;;;2.00;;
20828;SDS011;10575;50.124;8.582;2023-03-19T14:40:52;4.35;;;1.85;;
20828;SDS011;10575;50.124;8.582;2023-03-19T14:52:15;5.38;;;1.98;;
20828;SDS011;10575;50.124;8.582;2023-03-19T14:54:59;2.40;;;1.75;;
20828;SDS011;10575;50.124;8.582;2023-03-19T14:57:27;3.83;;;2.17;;
20828;SDS011;10575;50.124;8.582;2023-03-19T14:59:54;4.85;;;3.30;;
20828;SDS011;10575;50.124;8.582;2023-03-19T15:02:37;5.75;;;3.78;;
20828;SDS011;10575;50.124;8.582;2023-03-19T15:05:14;7.70;;;3.75;;
20828;SDS011;10575;50.124;8.582;2023-03-19T15:07:42;9.93;;;6.22;;
20828;SDS011;10575;50.124;8.582;2023-03-19T15:10:14;7.47;;;5.43;;
20828;SDS011;10575;50.124;8.582;2023-03-19T15:16:04;3.47;;;2.10;;
20828;SDS011;10575;50.124;8.582;2023-03-19T15:18:41;5.30;;;2.45;;
20828;SDS011;10575;50.124;8.582;2023-03-19T15:21:07;3.92;;;2.58;;
20828;SDS011;10575;50.124;8.582;2023-03-19T15:23:33;4.38;;;2.65;;
20828;SDS011;10575;50.124;8.582;2023-03-19T15:26:00;4.97;;;2.60;;
20828;SDS011;10575;50.124;8.582;2023-03-19T15:28:32;3.45;;;2.25;;
20828;SDS011;10575;50.124;8.582;2023-03-19T15:31:08;3.47;;;2.13;;
20828;SDS011;10575;50.124;8.582;2023-03-19T15:33:35;5.20;;;1.98;;
20828;SDS011;10575;50.124;8.582;2023-03-19T15:36:03;4.18;;;2.60;;
20828;SDS011;10575;50.124;8.582;2023-03-19T15:38:55;3.90;;;2.40;;
20828;SDS011;10575;50.124;8.582;2023-03-19T15:41:24;2.78;;;1.80;;
20828;SDS011;10575;50.124;8.582;2023-03-19T15:43:55;3.55;;;1.90;;
20828;SDS011;10575;50.124;8.582;2023-03-19T15:46:22;1.85;;;1.40;;
20828;SDS011;10575;50.124;8.582;2023-03-19T15:48:55;2.30;;;1.50;;
20828;SDS011;10575;50.124;8.582;2023-03-19T15:51:27;2.05;;;1.15;;
20828;SDS011;10575;50.124;8.582;2023-03-19T15:53:53;2.92;;;1.48;;
20828;SDS011;10575;50.124;8.582;2023-03-19T15:56:19;4.95;;;1.10;;
20828;SDS011;10575;50.124;8.582;2023-03-19T15:58:49;2.92;;;1.35;;
20828;SDS011;10575;50.124;8.582;2023-03-19T16:01:19;1.48;;;1.20;;
20828;SDS011;10575;50.124;8.582;2023-03-19T16:03:48;1.85;;;1.27;;
20828;SDS011;10575;50.124;8.582;2023-03-19T16:06:29;3.67;;;1.33;;
20828;SDS011;10575;50.124;8.582;2023-03-19T16:09:18;1.42;;;1.10;;
20828;SDS011;10575;50.124;8.582;2023-03-19T16:11:49;1.20;;;1.10;;
20828;SDS011;10575;50.124;8.582;2023-03-19T16:17:10;1.40;;;1.10;;
20828;SDS011;10575;50.124;8.582;2023-03-19T16:19:46;3.47;;;1.60;;
20828;SDS011;10575;50.124;8.582;2023-03-19T16:22:16;2.55;;;1.40;;
20828;SDS011;10575;50.124;8.582;2023-03-19T16:24:45;2.90;;;1.60;;
20828;SDS011;10575;50.124;8.582;2023-03-19T16:27:14;2.28;;;1.75;;
20828;SDS011;10575;50.124;8.582;2023-03-19T16:29:45;1.85;;;1.55;;
20828;SDS011;10575;50.124;8.582;2023-03-19T16:32:25;2.03;;;1.60;;
20828;SDS011;10575;50.124;8.582;2023-03-19T16:34:53;3.58;;;2.05;;